Time;durP1;ratioP1;P1;durP2;ratioP2;P2;SDS_P1;SDS_P2;PMS_P1;PMS_P2;Temp;Humidity;BMP_temperature;BMP_pressure;BME280_temperature;BME280_humidity;BME280_pressure;Samples;Min_cycle;Max_cycle;Signal;HPM_P1;HPM_P2
2021/09/23 00:00:45;;;;;;;14.20;4.20;;;;;;;10.71;84.78;99810.27;1678527;83;20943;-62
2021/09/23 00:03:14;;;;;;;12.20;4.10;;;;;;;10.73;84.79;99802.37;1678518;83;20884;-62
2021/09/23 00:05:40;;;;;;;9.63;3.77;;;;;;;10.73;84.80;99799.77;1675456;83;20955;-62
2021/09/23 00:08:08;;;;;;;20.35;5.05;;;;;;;10.74;84.83;99794.91;1701259;82;20911;-62
2021/09/23 00:10:38;;;;;;;10.45;3.47;;;;;;;10.73;84.87;99794.54;1707218;82;21065;-62
2021/09/23 00:13:06;;;;;;;13.68;4.33;;;;;;;10.75;84.96;99784.84;1705005;83;21449;-62
2021/09/23 00:15:34;;;;;;;9.05;3.60;;;;;;;10.78;84.99;99778.17;1663302;83;20950;-62
2021/09/23 00:18:07;;;;;;;10.15;3.87;;;;;;;10.82;85.07;99774.51;1675182;83;20951;-62
2021/09/23 00:20:38;;;;;;;7.97;3.87;;;;;;;10.83;85.05;99757.91;1670943;83;20891;-62
2021/09/23 00:23:06;;;;;;;11.83;4.35;;;;;;;10.88;85.17;99761.61;1685643;83;21837;-63
2021/09/23 00:25:32;;;;;;;;;;;;;;;10.90;85.18;99757.17;1658517;84;20879;-62
2021/09/23 00:28:00;;;;;;;12.87;3.77;;;;;;;10.94;85.25;99751.70;1655892;85;20433;-62
2021/09/23 00:30:27;;;;;;;9.28;3.52;;;;;;;10.93;85.21;99743.49;1648346;86;20951;-63
2021/09/23 00:32:55;;;;;;;11.15;3.65;;;;;;;10.95;85.29;99749.50;1643031;85;21504;-62
2021/09/23 00:35:22;;;;;;;12.00;3.90;;;;;;;10.98;85.36;99745.43;1703794;82;21105;-63
2021/09/23 00:37:49;;;;;;;12.25;3.33;;;;;;;11.02;85.34;99742.66;1705292;83;21554;-63
2021/09/23 00:40:17;;;;;;;10.40;3.80;;;;;;;11.01;85.31;99744.44;1707359;82;21540;-62
2021/09/23 00:42:47;;;;;;;14.38;3.98;;;;;;;11.02;85.38;99743.50;1692633;82;21616;-62
2021/09/23 00:45:16;;;;;;;10.23;3.92;;;;;;;11.06;85.48;99741.58;1666117;84;21552;-62
2021/09/23 00:47:43;;;;;;;9.40;3.27;;;;;;;11.08;85.48;99741.05;1647187;86;21000;-62
2021/09/23 00:50:11;;;;;;;12.53;3.37;;;;;;;11.11;85.55;99738.28;1700134;83;21464;-62
2021/09/23 00:52:39;;;;;;;9.70;3.27;;;;;;;11.13;85.59;99731.22;1699823;83;21497;-62
2021/09/23 00:55:07;;;;;;;;;;;;;;;11.15;85.62;99729.39;1704126;83;20946;-62
2021/09/23 00:57:34;;;;;;;11.90;3.77;;;;;;;11.17;85.70;99723.61;1690256;83;20144;-62
2021/09/23 01:00:00;;;;;;;11.60;2.85;;;;;;;11.20;85.68;99715.61;1706274;82;21858;-62
2021/09/23 01:02:27;;;;;;;13.93;3.55;;;;;;;11.23;85.73;99718.09;1707830;83;21417;-62
2021/09/23 01:04:54;;;;;;;12.10;3.70;;;;;;;11.26;85.78;99717.94;1668781;83;21517;-62
2021/09/23 01:07:21;;;;;;;9.83;3.17;;;;;;;11.27;85.72;99711.78;1704961;82;21300;-62
2021/09/23 01:09:54;;;;;;;9.18;3.67;;;;;;;11.29;85.76;99707.33;1689274;83;20993;-62
2021/09/23 01:12:23;;;;;;;11.90;3.17;;;;;;;11.30;85.74;99695.94;1710468;82;21186;-62
2021/09/23 01:14:52;;;;;;;11.08;3.25;;;;;;;11.31;85.76;99680.63;1704456;83;21438;-62
2021/09/23 01:17:19;;;;;;;14.13;3.45;;;;;;;11.32;85.77;99675.80;1710794;83;21018;-62
2021/09/23 01:19:46;;;;;;;11.45;2.98;;;;;;;11.34;85.82;99670.05;1713406;81;21826;-62
2021/09/23 01:22:14;;;;;;;10.00;3.80;;;;;;;11.35;85.81;99665.19;1687608;83;20925;-63
2021/09/23 01:24:41;;;;;;;11.93;3.30;;;;;;;11.37;85.89;99655.51;1720670;81;21094;-62
2021/09/23 01:27:10;;;;;;;9.65;3.65;;;;;;;11.39;85.92;99661.48;1729449;81;20922;-62
2021/09/23 01:29:38;;;;;;;8.65;3.02;;;;;;;11.41;85.98;99654.41;1727478;81;20918;-62
2021/09/23 01:32:06;;;;;;;11.85;3.20;;;;;;;11.41;85.87;99646.56;1722211;81;20945;-62
2021/09/23 01:34:34;;;;;;;15.63;3.45;;;;;;;11.40;85.80;99644.89;1721375;82;20993;-62
2021/09/23 01:37:01;;;;;;;11.15;3.40;;;;;;;11.36;85.70;99621.13;1696373;81;21077;-62
2021/09/23 01:39:29;;;;;;;12.78;4.15;;;;;;;11.28;85.69;99619.36;1724640;82;20977;-63
2021/09/23 01:41:56;;;;;;;11.78;3.30;;;;;;;11.20;85.66;99611.94;1724967;81;20944;-62
2021/09/23 01:44:24;;;;;;;11.83;3.45;;;;;;;11.13;85.74;99607.94;1732176;82;21465;-63
2021/09/23 01:46:51;;;;;;;11.88;3.22;;;;;;;11.07;85.81;99608.27;1724081;81;21470;-62
2021/09/23 01:49:18;;;;;;;11.68;3.12;;;;;;;10.99;86.08;99610.41;1680282;83;22145;-62
2021/09/23 01:51:45;;;;;;;15.10;3.87;;;;;;;10.99;86.08;99610.41;1680574;83;20922;-62
2021/09/23 01:54:12;;;;;;;15.50;3.70;;;;;;;10.96;86.10;99608.80;1656966;84;20947;-62
2021/09/23 01:56:39;;;;;;;11.73;4.22;;;;;;;10.95;86.25;99605.81;1681012;83;21014;-62
2021/09/23 01:59:06;;;;;;;14.90;3.80;;;;;;;10.96;86.29;99602.73;1681612;83;20978;-62
2021/09/23 02:01:32;;;;;;;10.10;3.30;;;;;;;10.96;86.36;99607.50;1684618;83;21083;-62
2021/09/23 02:03:59;;;;;;;13.97;3.60;;;;;;;11.00;86.48;99611.26;1680601;84;20955;-62
2021/09/23 02:06:26;;;;;;;12.05;3.37;;;;;;;11.02;86.50;99604.19;1680793;83;20852;-62
2021/09/23 02:08:53;;;;;;;12.35;3.60;;;;;;;11.06;86.57;99608.33;1681653;83;20891;-62
2021/09/23 02:11:21;;;;;;;16.40;4.37;;;;;;;11.09;86.62;99603.81;1648428;85;21009;-62
2021/09/23 02:13:47;;;;;;;19.30;4.83;;;;;;;11.13;86.66;99596.65;1648485;85;21047;-62
2021/09/23 02:16:14;;;;;;;13.65;3.85;;;;;;;11.18;86.67;99597.27;1684081;83;20941;-62
2021/09/23 02:18:41;;;;;;;15.70;3.87;;;;;;;11.23;86.69;99584.80;1683105;83;21026;-62
2021/09/23 02:21:07;;;;;;;12.23;3.80;;;;;;;11.28;86.72;99580.16;1664329;84;20979;-62
2021/09/23 02:23:34;;;;;;;12.15;3.60;;;;;;;11.30;86.70;99570.47;1681799;83;20966;-62
2021/09/23 02:26:01;;;;;;;13.25;3.52;;;;;;;11.33;86.69;99553.79;1675034;83;21489;-62
2021/09/23 02:28:27;;;;;;;14.23;3.90;;;;;;;11.35;86.67;99552.78;1738850;80;21432;-62
2021/09/23 02:30:55;;;;;;;15.68;4.25;;;;;;;11.36;86.74;99541.39;1741601;80;20910;-62
2021/09/23 02:33:22;;;;;;;14.30;4.28;;;;;;;11.38;86.75;99533.02;1745345;80;21613;-62
2021/09/23 02:35:49;;;;;;;14.90;4.10;;;;;;;11.38;86.72;99516.02;1732808;80;20878;-62
2021/09/23 02:38:15;;;;;;;11.10;4.60;;;;;;;11.38;86.74;99508.17;1741125;80;21042;-62
2021/09/23 02:40:42;;;;;;;12.33;4.27;;;;;;;11.39;86.83;99492.86;1738695;80;20878;-62
2021/09/23 02:43:08;;;;;;;16.65;4.62;;;;;;;11.42;86.87;99487.46;1736458;80;20971;-62
2021/09/23 02:45:35;;;;;;;14.77;4.27;;;;;;;11.42;86.82;99478.31;1731776;80;20945;-62
2021/09/23 02:48:02;;;;;;;12.40;4.17;;;;;;;11.42;86.87;99467.86;1731643;80;20894;-62
2021/09/23 02:50:29;;;;;;;14.83;4.08;;;;;;;11.46;86.95;99458.57;1738161;80;21838;-63
2021/09/23 02:52:56;;;;;;;13.50;4.53;;;;;;;11.46;86.94;99463.80;1738440;80;20918;-62
2021/09/23 02:55:22;;;;;;;10.63;4.10;;;;;;;11.48;87.00;99466.67;1741173;80;20918;-62
2021/09/23 02:57:49;;;;;;;11.27;4.27;;;;;;;11.52;87.08;99460.84;1745006;80;21686;-62
2021/09/23 03:00:16;;;;;;;10.08;3.87;;;;;;;11.53;87.09;99461.20;1724756;81;21416;-62
2021/09/23 03:02:43;;;;;;;;;;;;;;;11.56;87.16;99466.27;1733237;80;21034;-63
2021/09/23 03:05:10;;;;;;;11.88;4.70;;;;;;;11.59;87.20;99445.17;1739868;80;20100;-63
2021/09/23 03:07:36;;;;;;;11.70;4.40;;;;;;;11.60;87.16;99446.88;1738714;80;20942;-62
2021/09/23 03:10:05;;;;;;;11.00;3.90;;;;;;;11.58;87.18;99440.88;1729392;80;21637;-63
2021/09/23 03:12:32;;;;;;;15.18;4.92;;;;;;;11.60;87.20;99436.42;1736140;80;20950;-63
2021/09/23 03:14:59;;;;;;;13.13;4.23;;;;;;;11.63;87.22;99441.47;1728060;80;21072;-62
2021/09/23 03:17:25;;;;;;;10.20;4.05;;;;;;;11.64;87.20;99437.92;1741425;80;20994;-62
2021/09/23 03:19:55;;;;;;;13.48;4.72;;;;;;;11.64;87.25;99443.15;1703560;82;20918;-62
2021/09/23 03:22:22;;;;;;;15.95;5.15;;;;;;;11.64;87.27;99433.52;1700781;83;20875;-62
2021/09/23 03:24:48;;;;;;;16.15;4.45;;;;;;;11.66;87.25;99438.69;1687224;83;21024;-62
2021/09/23 03:27:16;;;;;;;9.93;5.10;;;;;;;11.58;87.18;99419.96;1692404;83;21067;-63
2021/09/23 03:29:44;;;;;;;12.03;4.97;;;;;;;11.63;87.26;99423.17;1693355;83;28030;-62
2021/09/23 03:32:11;;;;;;;17.77;5.12;;;;;;;11.59;87.18;99403.33;1696437;83;20919;-62
2021/09/23 03:34:38;;;;;;;16.97;5.00;;;;;;;11.52;87.12;99399.40;1687849;83;20938;-62
2021/09/23 03:37:05;;;;;;;13.83;5.33;;;;;;;11.47;87.19;99396.19;1739496;79;21580;-63
2021/09/23 03:39:32;;;;;;;13.07;5.07;;;;;;;11.41;87.22;99394.30;1736335;80;21968;-62
2021/09/23 03:41:58;;;;;;;15.23;5.40;;;;;;;11.38;87.28;99390.55;1736000;80;21049;-62
2021/09/23 03:44:25;;;;;;;10.27;4.80;;;;;;;11.33;87.36;99388.65;1736636;80;21509;-63
2021/09/23 03:46:55;;;;;;;11.77;4.90;;;;;;;11.32;87.36;99388.28;1733938;80;21034;-62
2021/09/23 03:49:20;;;;;;;15.35;5.35;;;;;;;11.26;87.34;99383.40;1737969;80;21514;-63
2021/09/23 03:51:46;;;;;;;11.08;5.42;;;;;;;11.22;87.32;99387.09;1742160;80;21266;-63
2021/09/23 03:54:13;;;;;;;18.62;5.60;;;;;;;11.17;87.44;99376.05;1741821;80;20951;-62
2021/09/23 03:56:40;;;;;;;13.05;5.20;;;;;;;11.14;87.47;99376.22;1741285;80;20926;-62
2021/09/23 03:59:06;;;;;;;12.57;5.43;;;;;;;11.13;87.55;99381.08;1744145;80;20931;-62
2021/09/23 04:01:33;;;;;;;17.90;7.67;;;;;;;11.13;87.66;99383.69;1741144;80;20963;-62
2021/09/23 04:03:59;;;;;;;13.77;5.90;;;;;;;11.16;87.76;99383.52;1740112;80;21056;-62
2021/09/23 04:06:26;;;;;;;14.63;6.25;;;;;;;11.18;87.78;99377.75;1702964;83;21042;-62
2021/09/23 04:08:53;;;;;;;16.33;6.27;;;;;;;11.20;87.78;99368.03;1683045;83;21662;-61
2021/09/23 04:11:19;;;;;;;15.40;5.90;;;;;;;11.21;87.80;99371.05;1739191;80;21509;-62
2021/09/23 04:13:46;;;;;;;21.82;7.62;;;;;;;11.22;87.81;99367.49;1738650;80;20881;-61
2021/09/23 04:16:15;;;;;;;46.92;9.48;;;;;;;11.27;87.85;99369.39;1733673;81;21035;-62
2021/09/23 04:18:42;;;;;;;72.92;9.50;;;;;;;11.28;87.88;99358.00;1720726;81;20926;-62
2021/09/23 04:21:09;;;;;;;27.45;8.20;;;;;;;11.31;87.90;99360.44;1741273;80;20946;-62
2021/09/23 04:23:35;;;;;;;19.37;6.25;;;;;;;11.34;87.93;99363.34;1735753;80;20915;-62
2021/09/23 04:26:02;;;;;;;32.33;8.40;;;;;;;11.35;87.94;99355.44;1737985;80;20934;-62
2021/09/23 04:28:29;;;;;;;;;;;;;;;11.35;87.98;99358.05;1749205;79;22299;-62
2021/09/23 04:30:56;;;;;;;83.70;15.55;;;;;;;11.36;87.97;99361.03;1745222;79;20211;-62
2021/09/23 04:33:25;;;;;;;116.30;14.60;;;;;;;11.38;88.04;99360.48;1742016;80;20926;-62
2021/09/23 04:35:51;;;;;;;28.23;8.90;;;;;;;11.39;88.00;99362.16;1746451;80;20959;-62
2021/09/23 04:38:23;;;;;;;52.13;12.03;;;;;;;11.41;88.07;99348.55;1744919;81;21456;-63
2021/09/23 04:40:48;;;;;;;66.33;11.73;;;;;;;11.43;88.04;99346.70;1727644;80;21880;-62
2021/09/23 04:43:15;;;;;;;19.02;5.85;;;;;;;11.45;88.06;99333.98;1749623;80;21488;-62
2021/09/23 04:45:43;;;;;;;13.97;6.80;;;;;;;11.46;87.97;99318.23;1747373;80;20922;-62
2021/09/23 04:48:09;;;;;;;17.82;5.87;;;;;;;11.45;87.96;99314.38;1749361;80;21139;-62
2021/09/23 04:50:37;;;;;;;19.20;6.45;;;;;;;11.45;87.97;99306.55;1747219;81;20891;-62
2021/09/23 04:53:03;;;;;;;22.32;6.40;;;;;;;11.43;87.96;99294.41;1726099;81;21050;-62
2021/09/23 04:55:32;;;;;;;21.90;6.40;;;;;;;11.45;88.09;99306.55;1745103;80;21105;-62
2021/09/23 04:58:00;;;;;;;19.42;6.70;;;;;;;11.46;88.06;99291.25;1748393;80;20923;-64
2021/09/23 05:00:26;;;;;;;;;;;;;;;11.47;88.12;99279.85;1747977;80;20957;-63
2021/09/23 05:02:53;;;;;;;24.67;10.15;;;;;;;11.47;88.12;99283.78;1750510;80;20155;-63
2021/09/23 05:05:20;;;;;;;29.42;8.98;;;;;;;11.47;88.18;99278.55;1752326;80;21035;-63
2021/09/23 05:07:47;;;;;;;36.33;7.87;;;;;;;11.48;88.18;99274.99;1749286;80;20919;-63
2021/09/23 05:10:13;;;;;;;20.85;7.12;;;;;;;11.51;88.25;99272.19;1748340;80;20908;-63
2021/09/23 05:12:40;;;;;;;15.48;6.30;;;;;;;11.53;88.20;99276.87;1746390;80;20902;-63
2021/09/23 05:15:11;;;;;;;35.47;9.20;;;;;;;11.56;88.23;99280.62;1747901;80;20875;-64
2021/09/23 05:17:37;;;;;;;63.28;14.58;;;;;;;11.60;88.27;99279.05;1751152;80;22109;-64
2021/09/23 05:20:06;;;;;;;43.73;11.93;;;;;;;11.65;88.32;99278.80;1743939;80;20912;-63
2021/09/23 05:22:32;;;;;;;29.10;7.40;;;;;;;11.68;88.30;99277.75;1743142;80;21405;-63
2021/09/23 05:25:00;;;;;;;37.30;11.38;;;;;;;11.68;88.26;99270.77;1752158;80;21556;-63
2021/09/23 05:27:27;;;;;;;;;;;;;;;11.68;88.26;99264.23;1729594;81;21393;-63
2021/09/23 05:29:54;;;;;;;40.75;14.50;;;;;;;11.70;88.34;99258.89;1740176;80;21336;-63
2021/09/23 05:32:21;;;;;;;21.45;9.28;;;;;;;11.70;88.28;99254.50;1744747;80;20910;-64
2021/09/23 05:34:47;;;;;;;25.60;10.30;;;;;;;11.69;88.26;99252.83;1731078;81;20930;-63
2021/09/23 05:37:14;;;;;;;39.87;12.03;;;;;;;11.70;88.33;99254.50;1728011;81;20913;-64
2021/09/23 05:39:40;;;;;;;26.60;11.53;;;;;;;11.70;88.32;99247.95;1735189;81;20926;-64
2021/09/23 05:42:07;;;;;;;106.43;23.27;;;;;;;11.72;88.34;99248.72;1731742;80;21485;-63
2021/09/23 05:44:34;;;;;;;46.00;11.25;;;;;;;11.75;88.40;99247.69;1736461;81;20915;-63
2021/09/23 05:47:00;;;;;;;73.15;18.67;;;;;;;11.77;88.36;99242.75;1739496;80;20922;-63
2021/09/23 05:49:27;;;;;;;32.17;7.23;;;;;;;11.79;88.36;99244.81;1744994;81;20918;-63
2021/09/23 05:51:55;;;;;;;36.83;11.57;;;;;;;11.73;88.30;99228.16;1741117;81;21465;-64
2021/09/23 05:54:23;;;;;;;19.85;8.20;;;;;;;11.79;88.34;99239.59;1735255;80;21858;-65
2021/09/23 05:56:50;;;;;;;12.20;5.65;;;;;;;11.81;88.32;99236.39;1745908;79;21391;-66
2021/09/23 05:59:18;;;;;;;38.33;13.78;;;;;;;11.84;88.42;99233.58;1736906;80;20914;-66
2021/09/23 06:01:44;;;;;;;20.25;6.55;;;;;;;11.91;88.51;99234.58;1735393;80;20925;-66
2021/09/23 06:04:11;;;;;;;54.33;12.85;;;;;;;11.98;88.42;99237.19;1742132;80;20979;-66
2021/09/23 06:06:38;;;;;;;40.60;10.13;;;;;;;12.02;88.14;99236.08;1729519;81;22070;-66
2021/09/23 06:09:05;;;;;;;76.40;18.48;;;;;;;12.02;88.14;99236.08;1731940;80;21501;-66
2021/09/23 06:11:33;;;;;;;52.23;11.40;;;;;;;12.07;88.38;99236.61;1708099;82;20957;-65
2021/09/23 06:13:59;;;;;;;44.20;12.60;;;;;;;12.10;88.45;99228.60;1736695;81;21913;-65
2021/09/23 06:16:26;;;;;;;70.70;16.48;;;;;;;12.15;88.42;99226.52;1713960;81;20937;-65
2021/09/23 06:18:53;;;;;;;81.57;16.80;;;;;;;12.24;88.58;99223.36;1726338;80;21295;-64
2021/09/23 06:21:20;;;;;;;66.30;14.43;;;;;;;12.34;88.48;99214.92;1728842;80;20914;-66
2021/09/23 06:23:47;;;;;;;66.87;14.85;;;;;;;12.39;88.45;99223.33;1748558;80;20889;-64
2021/09/23 06:26:16;;;;;;;62.67;10.65;;;;;;;12.48;88.48;99215.72;1739669;80;20844;-65
2021/09/23 06:28:43;;;;;;;50.08;11.57;;;;;;;12.57;88.45;99211.68;1744705;80;20932;-65
2021/09/23 06:31:10;;;;;;;33.15;7.90;;;;;;;12.61;88.29;99213.19;1736816;80;21975;-65
2021/09/23 06:33:37;;;;;;;70.22;16.05;;;;;;;12.63;88.28;99213.94;1697435;82;21004;-65
2021/09/23 06:36:04;;;;;;;30.17;8.85;;;;;;;12.62;88.15;99207.00;1744479;80;20920;-65
2021/09/23 06:38:30;;;;;;;28.25;8.60;;;;;;;12.63;88.19;99192.98;1735254;80;20942;-65
2021/09/23 06:40:57;;;;;;;64.20;13.83;;;;;;;12.62;88.14;99193.90;1734508;80;20970;-65
2021/09/23 06:43:24;;;;;;;98.10;17.27;;;;;;;12.61;88.22;99186.99;1733460;81;21031;-65
2021/09/23 06:45:51;;;;;;;77.15;17.90;;;;;;;12.64;88.30;99180.25;1738996;80;26155;-65
2021/09/23 06:48:18;;;;;;;162.12;32.45;;;;;;;12.68;88.38;99175.16;1720953;81;20907;-65
2021/09/23 06:50:45;;;;;;;25.23;9.70;;;;;;;12.75;88.39;99176.47;1731948;80;21469;-65
2021/09/23 06:53:12;;;;;;;123.55;18.65;;;;;;;12.81;88.29;99166.05;1741446;81;20934;-65
2021/09/23 06:55:38;;;;;;;77.75;16.00;;;;;;;12.83;88.21;99159.42;1688120;83;21468;-65
2021/09/23 06:58:05;;;;;;;94.33;22.03;;;;;;;12.87;88.30;99169.58;1688440;83;20897;-65
2021/09/23 07:00:32;;;;;;;75.32;15.32;;;;;;;12.94;88.34;99162.17;1738234;80;20918;-65
2021/09/23 07:02:59;;;;;;;33.90;9.63;;;;;;;12.99;88.29;99149.58;1740044;80;21458;-65
2021/09/23 07:05:27;;;;;;;29.13;10.20;;;;;;;13.03;88.07;99150.23;1736044;80;20914;-65
2021/09/23 07:07:54;;;;;;;17.60;7.47;;;;;;;13.05;88.10;99143.95;1737108;80;21082;-64
2021/09/23 07:10:20;;;;;;;59.80;14.97;;;;;;;13.06;88.01;99133.83;1732043;81;21403;-63
2021/09/23 07:12:47;;;;;;;29.57;10.45;;;;;;;13.01;87.85;99145.09;1730121;81;20935;-63
2021/09/23 07:15:13;;;;;;;69.93;19.10;;;;;;;12.98;87.90;99142.67;1734254;80;20935;-63
2021/09/23 07:17:40;;;;;;;27.27;8.23;;;;;;;12.99;88.01;99141.72;1729794;81;20911;-63
2021/09/23 07:20:08;;;;;;;28.77;9.50;;;;;;;12.95;87.93;99137.64;1727192;80;21698;-63
2021/09/23 07:22:35;;;;;;;76.87;12.88;;;;;;;12.92;88.00;99137.84;1734658;80;20921;-63
2021/09/23 07:25:02;;;;;;;46.90;10.78;;;;;;;12.91;88.03;99134.83;1724355;81;20912;-63
2021/09/23 07:27:29;;;;;;;57.93;13.03;;;;;;;12.90;88.02;99126.62;1698086;81;20962;-63
2021/09/23 07:29:56;;;;;;;18.60;6.97;;;;;;;12.89;87.94;99119.70;1700817;83;21433;-63
2021/09/23 07:32:23;;;;;;;48.65;10.63;;;;;;;12.92;88.05;99115.09;1696894;83;21935;-62
2021/09/23 07:34:50;;;;;;;92.77;24.93;;;;;;;12.93;88.02;99118.55;1699767;83;20927;-62
2021/09/23 07:37:17;;;;;;;35.15;12.35;;;;;;;12.92;87.90;99109.02;1686466;83;21002;-62
2021/09/23 07:39:43;;;;;;;56.93;12.87;;;;;;;12.94;88.06;99090.95;1705051;83;20935;-63
2021/09/23 07:42:10;;;;;;;40.38;12.90;;;;;;;12.99;88.08;99086.69;1705023;83;21604;-63
2021/09/23 07:44:40;;;;;;;43.90;11.97;;;;;;;13.05;88.10;99083.68;1674768;83;50918;-63
2021/09/23 07:47:06;;;;;;;45.15;15.15;;;;;;;13.14;87.98;99075.19;1679334;83;20996;-63
2021/09/23 07:49:33;;;;;;;54.18;16.80;;;;;;;13.14;87.98;99075.19;1691832;83;20956;-63
2021/09/23 07:52:01;;;;;;;38.02;13.30;;;;;;;13.25;88.14;99070.97;1679098;83;20962;-60
2021/09/23 07:54:28;;;;;;;62.10;19.75;;;;;;;13.36;87.86;99040.95;1698743;83;20914;-60
2021/09/23 07:56:55;;;;;;;59.58;14.07;;;;;;;13.36;87.86;99040.95;1702310;83;21211;-62
2021/09/23 07:59:22;;;;;;;88.92;19.48;;;;;;;13.64;88.22;99052.52;1704230;83;21434;-62
2021/09/23 08:01:49;;;;;;;47.57;10.70;;;;;;;13.85;88.20;99051.94;1700825;83;21449;-62
2021/09/23 08:04:15;;;;;;;51.87;12.37;;;;;;;13.97;87.90;99035.30;1701174;82;21493;-63
2021/09/23 08:06:42;;;;;;;69.05;15.30;;;;;;;14.27;87.99;99036.66;1701272;83;20922;-63
2021/09/23 08:09:09;;;;;;;48.40;9.00;;;;;;;14.45;87.79;99032.68;1698913;83;21044;-62
2021/09/23 08:11:35;;;;;;;50.47;10.50;;;;;;;14.52;87.50;99028.66;1685628;83;21661;-62
2021/09/23 08:14:02;;;;;;;89.80;17.07;;;;;;;14.61;87.43;99015.31;1699547;82;21004;-62
2021/09/23 08:16:30;;;;;;;75.72;14.47;;;;;;;14.68;87.11;99017.02;1703187;82;20910;-63
2021/09/23 08:18:56;;;;;;;74.10;13.72;;;;;;;14.70;87.09;99008.52;1701058;82;20871;-63
2021/09/23 08:21:23;;;;;;;82.87;15.40;;;;;;;14.62;86.52;99004.32;1694698;83;20998;-63
2021/09/23 08:23:51;;;;;;;23.90;6.85;;;;;;;14.50;86.64;99009.52;1685462;83;20929;-63
2021/09/23 08:26:18;;;;;;;27.98;6.10;;;;;;;14.37;86.64;99011.40;1685197;82;20950;-63
2021/09/23 08:28:44;;;;;;;26.50;6.60;;;;;;;14.27;86.72;99013.02;1697009;82;20991;-63
2021/09/23 08:31:15;;;;;;;12.10;5.37;;;;;;;14.23;86.79;99012.90;1696086;82;20933;-63
2021/09/23 08:33:40;;;;;;;63.30;9.20;;;;;;;14.23;86.77;98985.33;1674241;83;21068;-63
2021/09/23 08:36:07;;;;;;;23.02;6.92;;;;;;;14.22;86.70;98992.34;1703645;82;20940;-63
2021/09/23 08:38:34;;;;;;;54.85;7.55;;;;;;;14.25;86.73;98992.59;1632401;83;21465;-64
2021/09/23 08:41:01;;;;;;;44.80;9.58;;;;;;;14.29;86.65;98990.13;1661952;83;20947;-63
2021/09/23 08:43:27;;;;;;;41.75;7.75;;;;;;;14.29;86.55;98989.64;1659312;83;20943;-63
2021/09/23 08:45:55;;;;;;;45.48;10.72;;;;;;;14.32;86.62;98982.84;1692769;82;21048;-63
2021/09/23 08:48:26;;;;;;;142.10;26.80;;;;;;;14.39;86.53;98990.26;1682444;83;20927;-63
2021/09/23 08:50:52;;;;;;;201.98;36.23;;;;;;;14.44;86.55;98988.96;1693108;83;20907;-63
2021/09/23 08:53:19;;;;;;;129.05;22.40;;;;;;;14.48;86.40;98996.99;1696396;83;20923;-63
2021/09/23 08:55:46;;;;;;;222.67;41.17;;;;;;;14.49;86.34;98992.09;1696380;82;21560;-63
2021/09/23 08:58:13;;;;;;;41.65;10.88;;;;;;;14.55;86.37;98986.40;1684360;83;21049;-63
2021/09/23 09:01:05;;;;;;;58.85;14.33;;;;;;;14.60;86.06;98990.48;1654992;83;20908;-62
2021/09/23 09:03:33;;;;;;;155.00;21.10;;;;;;;14.55;85.96;98982.94;1690921;82;20900;-63
2021/09/23 09:06:11;;;;;;;57.03;15.88;;;;;;;14.50;85.82;98980.62;1681752;82;21071;-62
2021/09/23 09:08:40;;;;;;;86.45;15.40;;;;;;;14.39;85.63;98977.96;1685914;83;20994;-63
2021/09/23 09:11:11;;;;;;;57.13;14.18;;;;;;;14.32;85.82;98969.71;1674906;84;21062;-63
2021/09/23 09:13:45;;;;;;;58.28;12.55;;;;;;;14.25;85.62;98959.77;1681283;82;20915;-63
2021/09/23 09:16:18;;;;;;;62.38;13.15;;;;;;;14.18;85.64;98965.14;1692777;83;21060;-63
2021/09/23 09:18:46;;;;;;;55.38;14.05;;;;;;;14.06;85.50;98957.70;1683570;83;20890;-63
2021/09/23 09:21:16;;;;;;;41.23;13.72;;;;;;;13.95;85.51;98958.48;1689684;81;20910;-63
2021/09/23 09:23:54;;;;;;;57.03;11.53;;;;;;;13.88;85.56;98959.87;1699850;82;21228;-63
2021/09/23 09:26:37;;;;;;;44.60;12.75;;;;;;;13.81;85.43;98949.47;1690486;82;21417;-63
2021/09/23 09:29:03;;;;;;;55.92;14.87;;;;;;;13.71;85.46;98951.08;1737099;81;20926;-62
2021/09/23 09:31:31;;;;;;;31.48;9.93;;;;;;;13.68;85.64;98949.98;1736173;80;20942;-64
2021/09/23 09:34:00;;;;;;;75.55;14.35;;;;;;;13.65;85.55;98944.02;1740594;81;20891;-64
2021/09/23 09:36:37;;;;;;;65.40;14.98;;;;;;;13.64;85.65;98941.03;1739869;80;21034;-64
2021/09/23 09:39:12;;;;;;;83.75;18.35;;;;;;;13.71;85.73;98942.73;1736464;80;21322;-64
2021/09/23 09:41:46;;;;;;;114.25;17.23;;;;;;;13.79;85.65;98928.58;1737718;80;20890;-64
2021/09/23 09:44:15;;;;;;;70.70;18.25;;;;;;;13.86;85.63;98925.88;1724379;81;20908;-64
2021/09/23 09:46:49;;;;;;;46.25;13.05;;;;;;;13.93;85.61;98913.14;1732166;81;20961;-64
2021/09/23 09:49:16;;;;;;;40.05;12.05;;;;;;;14.05;85.68;98912.21;1736190;80;21049;-64
2021/09/23 09:51:50;;;;;;;51.90;11.83;;;;;;;14.18;85.55;98908.69;1742109;80;20977;-64
2021/09/23 09:54:20;;;;;;;123.65;21.17;;;;;;;14.27;85.48;98897.48;1730085;81;21452;-64
2021/09/23 09:57:00;;;;;;;28.05;7.87;;;;;;;14.26;85.34;98890.58;1739540;80;20905;-64
2021/09/23 09:59:27;;;;;;;97.82;18.67;;;;;;;14.35;85.31;98893.81;1733069;80;20888;-65
2021/09/23 10:01:57;;;;;;;31.42;9.98;;;;;;;14.41;85.31;98894.65;1739989;80;21063;-64
2021/09/23 10:04:29;;;;;;;165.03;30.12;;;;;;;14.52;85.36;98885.98;1737505;80;20908;-64
2021/09/23 10:07:02;;;;;;;67.53;11.22;;;;;;;14.67;85.38;98887.90;1738590;80;21342;-64
2021/09/23 10:09:31;;;;;;;151.22;20.35;;;;;;;14.71;85.09;98884.09;1736351;81;21385;-65
2021/09/23 10:11:59;;;;;;;23.52;7.78;;;;;;;14.74;85.08;98878.59;1737656;80;20981;-65
2021/09/23 10:14:27;;;;;;;;;;;;;;;14.76;84.78;98864.87;1735296;80;21041;-65
2021/09/23 10:16:53;;;;;;;43.55;8.90;;;;;;;14.68;84.63;98859.38;1743142;80;20140;-66
2021/09/23 10:19:21;;;;;;;68.52;16.12;;;;;;;14.59;84.67;98862.69;1737728;81;21365;-65
2021/09/23 10:21:48;;;;;;;;;;;;;;;14.54;84.75;98857.33;1747024;80;21078;-65
2021/09/23 10:24:16;;;;;;;66.67;12.53;;;;;;;14.50;84.73;98844.03;1741161;80;20138;-66
2021/09/23 10:26:45;;;;;;;49.15;11.50;;;;;;;14.43;84.67;98850.73;1728942;81;21129;-65
2021/09/23 10:29:13;;;;;;;20.77;7.28;;;;;;;14.35;84.55;98851.80;1730636;81;21495;-64
2021/09/23 10:31:40;;;;;;;156.52;30.57;;;;;;;14.27;84.56;98842.34;1733626;80;21457;-65
2021/09/23 10:34:11;;;;;;;37.20;10.08;;;;;;;14.20;84.56;98830.18;1737013;80;20890;-64
2021/09/23 10:36:40;;;;;;;270.95;44.70;;;;;;;14.14;84.60;98830.62;1740202;81;21002;-65
2021/09/23 10:39:10;;;;;;;57.75;12.33;;;;;;;14.07;84.54;98828.95;1739859;79;21108;-65
2021/09/23 10:41:39;;;;;;;36.70;9.20;;;;;;;14.02;84.57;98812.70;1735368;80;20858;-65
2021/09/23 10:44:07;;;;;;;49.20;14.05;;;;;;;13.98;84.59;98804.72;1736270;80;21499;-65
2021/09/23 10:46:35;;;;;;;18.52;7.80;;;;;;;14.01;84.73;98794.47;1738680;80;20958;-65
2021/09/23 10:49:05;;;;;;;28.92;8.80;;;;;;;14.06;84.63;98785.29;1733325;81;20929;-65
2021/09/23 10:51:34;;;;;;;62.10;16.05;;;;;;;14.08;84.70;98775.48;1733177;80;21053;-65
2021/09/23 10:54:04;;;;;;;101.12;13.18;;;;;;;14.15;84.76;98762.75;1734741;80;20890;-60
2021/09/23 10:56:33;;;;;;;96.20;15.45;;;;;;;14.26;84.77;98754.88;1731954;80;20932;-59
2021/09/23 10:59:03;;;;;;;38.48;9.70;;;;;;;14.42;84.85;98759.74;1732215;81;20918;-59
2021/09/23 11:01:36;;;;;;;41.18;10.15;;;;;;;14.49;84.56;98757.00;1732720;80;21473;-60
2021/09/23 11:04:03;;;;;;;28.38;8.65;;;;;;;14.65;84.68;98737.45;1740460;80;21071;-59
2021/09/23 11:06:42;;;;;;;;;;;;;;;14.87;84.77;98724.71;1738592;80;20914;-60
2021/09/23 11:09:22;;;;;;;30.88;8.08;;;;;;;15.10;84.74;98720.23;1735118;80;20122;-60
2021/09/23 11:11:51;;;;;;;32.63;7.03;;;;;;;15.43;84.76;98714.82;1742078;80;20919;-60
2021/09/23 11:14:19;;;;;;;25.92;8.28;;;;;;;15.67;84.29;98706.65;1733750;80;20930;-60
2021/09/23 11:16:51;;;;;;;68.20;11.40;;;;;;;15.81;84.09;98705.52;1732118;80;21638;-60
2021/09/23 11:19:22;;;;;;;41.75;9.30;;;;;;;15.87;84.02;98694.45;1727748;82;20969;-60
2021/09/23 11:21:51;;;;;;;29.10;7.20;;;;;;;15.95;83.88;98700.88;1734439;82;20890;-60
2021/09/23 11:24:24;;;;;;;20.95;7.00;;;;;;;15.96;83.66;98692.01;1733340;80;21441;-59
2021/09/23 11:26:52;;;;;;;85.92;9.33;;;;;;;15.87;83.41;98683.93;1733844;81;20885;-59